createdAt,value
2022-09-27T00:01:00.247Z,100.00
2022-09-27T00:03:28.002Z,100.00
2022-09-27T00:06:05.528Z,100.00
2022-09-27T00:08:33.603Z,99.09
2022-09-27T00:11:01.897Z,100.00
2022-09-27T00:13:29.423Z,99.22
2022-09-27T00:15:57.652Z,100.00
2022-09-27T00:18:25.043Z,100.00
2022-09-27T00:20:52.238Z,100.00
2022-09-27T00:23:19.887Z,100.00
2022-09-27T00:25:57.011Z,100.00
2022-09-27T00:28:24.777Z,100.00
2022-09-27T00:30:52.140Z,100.00
2022-09-27T00:33:19.517Z,100.00
2022-09-27T00:35:46.853Z,100.00
2022-09-27T00:38:14.514Z,100.00
2022-09-27T00:40:43.160Z,100.00
2022-09-27T00:43:18.558Z,100.00
2022-09-27T00:45:48.663Z,100.00
2022-09-27T00:48:18.468Z,100.00
2022-09-27T00:50:48.126Z,100.00
2022-09-27T00:53:17.446Z,100.00
2022-09-27T00:55:49.422Z,100.00
2022-09-27T00:58:18.932Z,100.00
2022-09-27T01:00:48.518Z,100.00
2022-09-27T01:03:22.578Z,100.00
2022-09-27T01:05:49.799Z,100.00
2022-09-27T01:08:16.965Z,100.00
2022-09-27T01:10:49.910Z,100.00
2022-09-27T01:13:20.691Z,100.00
2022-09-27T01:16:00.485Z,100.00
2022-09-27T01:18:51.069Z,100.00
2022-09-27T01:21:21.528Z,100.00
2022-09-27T01:23:48.884Z,100.00
2022-09-27T01:26:22.745Z,100.00
2022-09-27T01:29:05.608Z,100.00
2022-09-27T01:31:41.485Z,100.00
2022-09-27T01:34:16.817Z,100.00
2022-09-27T01:36:47.084Z,100.00
2022-09-27T01:39:32.881Z,100.00
2022-09-27T01:42:41.329Z,100.00
2022-09-27T01:45:17.871Z,100.00
2022-09-27T01:48:07.904Z,100.00
2022-09-27T01:50:57.186Z,100.00
2022-09-27T01:53:27.481Z,100.00
2022-09-27T01:56:10.920Z,100.00
2022-09-27T01:59:05.241Z,100.00
2022-09-27T02:01:35.949Z,100.00
2022-09-27T02:04:03.791Z,100.00
2022-09-27T02:06:43.037Z,100.00
2022-09-27T02:09:31.059Z,100.00
2022-09-27T02:12:17.833Z,100.00
2022-09-27T02:14:48.731Z,100.00
2022-09-27T02:17:21.565Z,100.00
2022-09-27T02:19:56.049Z,100.00
2022-09-27T02:22:36.061Z,100.00
2022-09-27T02:25:21.493Z,100.00
2022-09-27T02:28:08.215Z,100.00
2022-09-27T02:30:36.682Z,100.00
2022-09-27T02:33:16.972Z,100.00
2022-09-27T02:35:46.011Z,100.00
2022-09-27T02:38:13.910Z,100.00
2022-09-27T02:40:46.030Z,100.00
2022-09-27T02:43:14.468Z,100.00
2022-09-27T02:45:41.849Z,100.00
2022-09-27T02:48:09.155Z,100.00
2022-09-27T02:50:39.437Z,100.00
2022-09-27T02:53:18.481Z,100.00
2022-09-27T02:55:58.142Z,100.00
2022-09-27T02:59:13.010Z,100.00
2022-09-27T03:01:58.220Z,100.00
2022-09-27T03:04:37.181Z,100.00
2022-09-27T03:07:07.005Z,100.00
2022-09-27T03:09:41.579Z,100.00
2022-09-27T03:12:08.868Z,100.00
2022-09-27T03:14:36.153Z,100.00
2022-09-27T03:17:17.192Z,100.00
2022-09-27T03:20:04.992Z,100.00
2022-09-27T03:22:44.497Z,100.00
2022-09-27T03:25:11.776Z,100.00
2022-09-27T03:27:38.940Z,100.00
2022-09-27T03:30:06.917Z,100.00
2022-09-27T03:32:34.199Z,100.00
2022-09-27T03:35:30.832Z,100.00
2022-09-27T03:37:58.025Z,100.00
2022-09-27T03:40:25.308Z,100.00
2022-09-27T03:42:52.546Z,100.00
2022-09-27T03:45:19.786Z,100.00
2022-09-27T03:47:48.091Z,100.00
2022-09-27T03:50:15.540Z,100.00
2022-09-27T03:52:43.958Z,100.00
2022-09-27T03:55:12.117Z,100.00
2022-09-27T03:57:39.371Z,100.00
2022-09-27T04:00:08.212Z,100.00
2022-09-27T04:02:42.427Z,100.00
2022-09-27T04:05:25.757Z,100.00
2022-09-27T04:08:02.804Z,100.00
2022-09-27T04:10:32.439Z,100.00
2022-09-27T04:13:00.479Z,100.00
2022-09-27T04:15:32.131Z,100.00
2022-09-27T04:18:19.594Z,100.00
2022-09-27T04:21:05.280Z,100.00
2022-09-27T04:23:33.884Z,100.00
2022-09-27T04:26:01.331Z,100.00
2022-09-27T04:28:52.143Z,100.00
2022-09-27T04:31:22.784Z,100.00
2022-09-27T04:33:54.880Z,100.00
2022-09-27T04:36:27.993Z,100.00
2022-09-27T04:39:04.694Z,100.00
2022-09-27T04:41:33.029Z,100.00
2022-09-27T04:44:01.242Z,100.00
2022-09-27T04:46:31.773Z,100.00
2022-09-27T04:48:59.622Z,100.00
2022-09-27T04:51:27.882Z,100.00
2022-09-27T04:53:57.127Z,100.00
2022-09-27T04:56:28.690Z,100.00
2022-09-27T04:58:55.839Z,100.00
2022-09-27T05:01:23.392Z,100.00
2022-09-27T05:03:59.526Z,100.00
2022-09-27T05:06:28.286Z,100.00
2022-09-27T05:08:58.903Z,100.00
2022-09-27T05:11:28.239Z,100.00
2022-09-27T05:14:14.307Z,100.00
2022-09-27T05:16:55.427Z,100.00
2022-09-27T05:19:44.697Z,100.00
2022-09-27T05:22:18.440Z,100.00
2022-09-27T05:24:46.173Z,100.00
2022-09-27T05:27:18.513Z,100.00
2022-09-27T05:29:46.750Z,100.00
2022-09-27T05:32:34.662Z,100.00
2022-09-27T05:35:20.941Z,100.00
2022-09-27T05:37:52.795Z,100.00
2022-09-27T05:40:39.745Z,100.00
2022-09-27T05:43:08.399Z,100.00
2022-09-27T05:45:35.748Z,100.00
2022-09-27T05:48:05.295Z,100.00
2022-09-27T05:50:36.913Z,100.00
2022-09-27T05:53:04.814Z,100.00
2022-09-27T05:55:32.261Z,100.00
2022-09-27T05:58:04.628Z,100.00
2022-09-27T06:00:39.706Z,100.00
2022-09-27T06:03:26.910Z,100.00
2022-09-27T06:06:12.592Z,100.00
2022-09-27T06:08:46.816Z,100.00
2022-09-27T06:11:17.712Z,100.00
2022-09-27T06:13:45.972Z,100.00
2022-09-27T06:16:13.265Z,100.00
2022-09-27T06:18:42.843Z,100.00
2022-09-27T06:21:10.623Z,100.00
2022-09-27T06:23:38.281Z,100.00
2022-09-27T06:26:13.066Z,100.00
2022-09-27T06:28:58.596Z,100.00
2022-09-27T06:31:26.015Z,100.00
2022-09-27T06:34:02.659Z,100.00
2022-09-27T06:36:30.622Z,100.00
2022-09-27T06:38:57.899Z,100.00
2022-09-27T06:41:33.373Z,100.00
2022-09-27T06:44:03.577Z,100.00
2022-09-27T06:47:05.782Z,100.00
2022-09-27T06:49:51.505Z,100.00
2022-09-27T06:52:19.417Z,100.00
2022-09-27T06:54:47.533Z,100.00
2022-09-27T06:57:34.986Z,100.00
2022-09-27T07:00:20.619Z,100.00
2022-09-27T07:03:08.285Z,100.00
2022-09-27T07:05:56.935Z,100.00
2022-09-27T07:08:39.947Z,100.00
2022-09-27T07:11:07.748Z,100.00
2022-09-27T07:13:40.483Z,100.00
2022-09-27T07:16:08.061Z,98.12
2022-09-27T07:18:35.381Z,92.74
2022-09-27T07:21:02.625Z,93.45
2022-09-27T07:23:30.772Z,91.06
2022-09-27T07:26:04.231Z,87.75
2022-09-27T07:28:31.960Z,87.40
2022-09-27T07:31:00.260Z,86.47
2022-09-27T07:33:27.681Z,86.22
2022-09-27T07:35:54.899Z,84.76
2022-09-27T07:38:22.369Z,80.27
2022-09-27T07:40:49.876Z,78.88
2022-09-27T07:43:17.732Z,81.16
2022-09-27T07:45:45.258Z,79.38
2022-09-27T07:48:34.830Z,76.29
2022-09-27T07:51:11.981Z,75.12
2022-09-27T07:53:51.323Z,76.58
2022-09-27T07:56:31.722Z,77.01
2022-09-27T07:58:59.212Z,79.31
2022-09-27T08:01:26.474Z,81.81
2022-09-27T08:03:54.057Z,81.75
2022-09-27T08:06:22.137Z,80.87
2022-09-27T08:08:49.624Z,78.55
2022-09-27T08:11:18.899Z,77.67
2022-09-27T08:13:52.657Z,78.34
2022-09-27T08:16:24.014Z,76.33
2022-09-27T08:19:11.182Z,73.96
2022-09-27T08:21:45.865Z,74.15
2022-09-27T08:24:21.476Z,71.78
2022-09-27T08:27:10.781Z,70.39
2022-09-27T08:29:50.984Z,70.65
2022-09-27T08:32:22.978Z,71.04
2022-09-27T08:34:50.872Z,72.89
2022-09-27T08:37:18.092Z,71.52
2022-09-27T08:39:47.968Z,68.18
2022-09-27T08:42:39.926Z,68.14
2022-09-27T08:45:13.101Z,69.99
2022-09-27T08:47:45.907Z,67.53
2022-09-27T08:50:16.015Z,65.33
2022-09-27T08:52:47.222Z,62.10
2022-09-27T08:55:25.518Z,59.48
2022-09-27T08:57:55.266Z,57.22
2022-09-27T09:00:23.392Z,56.16
2022-09-27T09:02:50.933Z,55.13
2022-09-27T09:05:25.102Z,56.49
2022-09-27T09:08:18.961Z,59.41
2022-09-27T09:11:08.995Z,55.02
2022-09-27T09:13:53.295Z,57.05
2022-09-27T09:16:31.456Z,57.98
2022-09-27T09:19:16.797Z,62.41
2022-09-27T09:22:16.141Z,63.63
2022-09-27T09:24:55.246Z,65.52
2022-09-27T09:27:25.973Z,63.53
2022-09-27T09:29:59.160Z,63.12
2022-09-27T09:32:44.692Z,62.14
2022-09-27T09:35:21.921Z,64.22
2022-09-27T09:38:01.365Z,65.23
2022-09-27T09:40:32.737Z,65.95
2022-09-27T09:43:05.245Z,66.74
2022-09-27T09:45:39.856Z,67.50
2022-09-27T09:48:16.394Z,66.89
2022-09-27T09:50:51.917Z,66.89
2022-09-27T09:53:22.563Z,66.20
2022-09-27T09:56:14.695Z,68.83
2022-09-27T09:58:49.547Z,70.18
2022-09-27T10:01:19.467Z,68.98
2022-09-27T10:03:47.086Z,69.36
2022-09-27T10:06:16.119Z,69.16
2022-09-27T10:08:43.623Z,68.94
2022-09-27T10:11:37.458Z,70.56
2022-09-27T10:14:12.592Z,69.75
2022-09-27T10:16:42.610Z,70.40
2022-09-27T10:19:10.922Z,66.94
2022-09-27T10:21:41.047Z,69.08
2022-09-27T10:24:16.497Z,69.73
2022-09-27T10:27:03.739Z,69.13
2022-09-27T10:29:37.915Z,68.83
2022-09-27T10:32:19.395Z,69.66
2022-09-27T10:34:46.773Z,71.32
2022-09-27T10:37:17.201Z,70.97
2022-09-27T10:39:58.348Z,70.19
2022-09-27T10:42:34.621Z,69.56
2022-09-27T10:45:18.005Z,68.85
2022-09-27T10:47:54.371Z,68.63
2022-09-27T10:50:49.213Z,67.66
2022-09-27T10:53:26.316Z,68.37
2022-09-27T10:56:00.080Z,67.80
2022-09-27T10:58:27.443Z,66.16
2022-09-27T11:01:15.224Z,66.84
2022-09-27T11:04:06.436Z,66.46
2022-09-27T11:06:38.334Z,66.43
2022-09-27T11:09:16.629Z,67.34
2022-09-27T11:11:45.281Z,67.24
2022-09-27T11:14:20.333Z,67.36
2022-09-27T11:16:47.746Z,66.80
2022-09-27T11:19:34.006Z,65.04
2022-09-27T11:22:08.460Z,63.53
2022-09-27T11:24:35.830Z,64.22
2022-09-27T11:27:22.339Z,62.85
2022-09-27T11:30:04.184Z,64.25
2022-09-27T11:33:06.602Z,66.24
2022-09-27T11:35:34.008Z,64.09
2022-09-27T11:38:04.726Z,63.52
2022-09-27T11:40:41.169Z,63.30
2022-09-27T11:43:29.853Z,62.85
2022-09-27T11:46:18.170Z,62.94
2022-09-27T11:49:08.957Z,60.55
2022-09-27T11:51:56.977Z,59.23
2022-09-27T11:54:24.161Z,60.40
2022-09-27T11:56:54.360Z,60.05
2022-09-27T11:59:34.123Z,59.80
2022-09-27T12:02:02.427Z,61.13
2022-09-27T12:04:33.480Z,62.64
2022-09-27T12:07:04.041Z,61.42
2022-09-27T12:09:36.244Z,60.47
2022-09-27T12:12:12.495Z,61.18
2022-09-27T12:14:42.885Z,62.55
2022-09-27T12:17:14.565Z,61.15
2022-09-27T12:19:50.423Z,57.82
2022-09-27T12:22:53.943Z,57.40
2022-09-27T12:25:20.867Z,57.53
2022-09-27T12:28:28.406Z,57.99
2022-09-27T12:31:27.629Z,58.82
2022-09-27T12:34:02.681Z,58.82
2022-09-27T12:36:38.170Z,58.12
2022-09-27T12:39:29.965Z,56.72
2022-09-27T12:42:21.653Z,55.54
2022-09-27T12:44:50.907Z,55.14
2022-09-27T12:47:31.792Z,56.47
2022-09-27T12:50:12.581Z,57.22
2022-09-27T12:52:52.920Z,58.34
2022-09-27T12:55:27.493Z,57.44
2022-09-27T12:58:13.918Z,57.50
2022-09-27T13:00:47.331Z,57.05
2022-09-27T13:03:26.377Z,57.37
2022-09-27T13:06:04.599Z,56.71
2022-09-27T13:08:41.373Z,56.04
2022-09-27T13:11:28.074Z,54.65
2022-09-27T13:13:56.948Z,55.38
2022-09-27T13:16:25.808Z,55.00
2022-09-27T13:18:54.013Z,55.47
2022-09-27T13:21:40.476Z,54.93
2022-09-27T13:24:39.383Z,54.23
2022-09-27T13:27:27.451Z,55.95
2022-09-27T13:30:12.320Z,58.09
2022-09-27T13:33:02.179Z,57.99
2022-09-27T13:35:37.441Z,57.15
2022-09-27T13:38:24.095Z,57.11
2022-09-27T13:40:54.008Z,57.57
2022-09-27T13:43:42.807Z,56.11
2022-09-27T13:46:24.634Z,55.40
2022-09-27T13:48:56.578Z,56.30
2022-09-27T13:51:30.614Z,56.94
2022-09-27T13:54:06.621Z,57.21
2022-09-27T13:56:38.017Z,56.44
2022-09-27T13:59:10.736Z,56.63
2022-09-27T14:02:20.508Z,56.61
2022-09-27T14:04:50.880Z,54.56
2022-09-27T14:07:22.058Z,54.80
2022-09-27T14:09:55.689Z,55.14
2022-09-27T14:12:34.650Z,55.57
2022-09-27T14:15:05.356Z,56.35
2022-09-27T14:17:33.498Z,56.60
2022-09-27T14:20:03.268Z,56.12
2022-09-27T14:22:31.143Z,55.77
2022-09-27T14:25:16.753Z,55.18
2022-09-27T14:27:45.794Z,55.46
2022-09-27T14:30:39.138Z,55.67
2022-09-27T14:33:38.368Z,55.63
2022-09-27T14:36:55.902Z,54.75
2022-09-27T14:39:32.661Z,55.23
2022-09-27T14:42:05.075Z,55.51
2022-09-27T14:44:33.356Z,55.67
2022-09-27T14:47:23.315Z,57.10
2022-09-27T14:49:50.601Z,56.03
2022-09-27T14:52:21.403Z,55.93
2022-09-27T14:54:58.755Z,57.48
2022-09-27T14:57:27.034Z,56.57
2022-09-27T14:59:54.651Z,56.51
2022-09-27T15:02:23.579Z,56.33
2022-09-27T15:04:51.652Z,56.67
2022-09-27T15:07:20.021Z,56.87
2022-09-27T15:09:47.346Z,56.99
2022-09-27T15:12:19.062Z,56.74
2022-09-27T15:14:49.455Z,57.47
2022-09-27T15:17:21.022Z,57.39
2022-09-27T15:19:58.561Z,57.78
2022-09-27T15:22:34.457Z,58.21
2022-09-27T15:25:07.835Z,58.44
2022-09-27T15:27:34.973Z,58.71
2022-09-27T15:30:02.200Z,59.74
2022-09-27T15:32:29.727Z,60.05
2022-09-27T15:34:57.787Z,60.17
2022-09-27T15:37:24.879Z,60.11
2022-09-27T15:39:51.984Z,60.05
2022-09-27T15:42:19.707Z,60.27
2022-09-27T15:44:46.999Z,60.53
2022-09-27T15:47:40.702Z,60.90
2022-09-27T15:50:17.154Z,61.27
2022-09-27T15:52:47.205Z,60.75
2022-09-27T15:55:14.887Z,60.31
2022-09-27T15:57:42.023Z,60.72
2022-09-27T16:00:19.061Z,61.08
2022-09-27T16:02:46.737Z,61.40
2022-09-27T16:05:14.048Z,61.78
2022-09-27T16:07:41.125Z,61.59
2022-09-27T16:10:14.925Z,61.95
2022-09-27T16:12:42.119Z,61.19
2022-09-27T16:15:09.401Z,61.54
2022-09-27T16:17:38.503Z,62.01
2022-09-27T16:20:06.441Z,61.92
2022-09-27T16:22:33.603Z,62.14
2022-09-27T16:25:01.504Z,62.20
2022-09-27T16:27:29.348Z,62.77
2022-09-27T16:29:58.106Z,62.78
2022-09-27T16:32:25.624Z,63.30
2022-09-27T16:34:52.789Z,63.79
2022-09-27T16:37:20.038Z,64.77
2022-09-27T16:39:47.211Z,64.37
2022-09-27T16:42:15.255Z,64.16
2022-09-27T16:44:42.362Z,64.18
2022-09-27T16:47:09.567Z,64.29
2022-09-27T16:50:08.777Z,64.34
2022-09-27T16:52:35.930Z,65.29
2022-09-27T16:55:03.130Z,65.54
2022-09-27T16:57:30.315Z,65.18
2022-09-27T16:59:57.418Z,65.36
2022-09-27T17:02:24.808Z,65.91
2022-09-27T17:04:52.484Z,64.41
2022-09-27T17:07:20.257Z,64.81
2022-09-27T17:09:47.322Z,64.49
2022-09-27T17:12:14.773Z,64.58
2022-09-27T17:14:41.834Z,65.17
2022-09-27T17:17:08.980Z,64.70
2022-09-27T17:19:37.987Z,64.73
2022-09-27T17:22:06.390Z,64.87
2022-09-27T17:24:33.467Z,65.03
2022-09-27T17:27:00.569Z,65.58
2022-09-27T17:29:27.773Z,65.41
2022-09-27T17:32:24.613Z,65.93
2022-09-27T17:34:51.848Z,66.30
2022-09-27T17:37:19.290Z,66.27
2022-09-27T17:39:46.460Z,66.56
2022-09-27T17:42:13.577Z,67.07
2022-09-27T17:44:40.661Z,67.90
2022-09-27T17:47:45.870Z,68.14
2022-09-27T17:50:25.064Z,69.17
2022-09-27T17:52:53.423Z,69.97
2022-09-27T17:55:24.002Z,69.00
2022-09-27T17:57:51.309Z,69.18
2022-09-27T18:00:18.813Z,68.78
2022-09-27T18:02:46.431Z,68.71
2022-09-27T18:05:13.865Z,68.92
2022-09-27T18:07:41.006Z,68.85
2022-09-27T18:10:08.169Z,68.84
2022-09-27T18:12:35.339Z,69.14
2022-09-27T18:15:03.289Z,68.78
2022-09-27T18:17:30.791Z,68.39
2022-09-27T18:20:00.007Z,68.41
2022-09-27T18:22:29.414Z,68.81
2022-09-27T18:24:56.713Z,69.00
2022-09-27T18:27:23.839Z,69.26
2022-09-27T18:29:50.881Z,69.67
2022-09-27T18:32:18.280Z,69.55
2022-09-27T18:34:45.372Z,69.78
2022-09-27T18:37:12.480Z,70.04
2022-09-27T18:39:40.467Z,70.64
2022-09-27T18:42:09.006Z,71.00
2022-09-27T18:44:36.232Z,71.69
2022-09-27T18:47:03.481Z,72.31
2022-09-27T18:49:33.794Z,72.17
2022-09-27T18:52:02.672Z,72.25
2022-09-27T18:54:29.766Z,72.38
2022-09-27T18:56:56.856Z,74.20
2022-09-27T18:59:24.086Z,75.08
2022-09-27T19:01:51.547Z,77.22
2022-09-27T19:04:24.859Z,77.81
2022-09-27T19:06:57.120Z,77.65
2022-09-27T19:09:26.331Z,77.31
2022-09-27T19:11:53.799Z,76.68
2022-09-27T19:14:22.376Z,77.43
2022-09-27T19:16:49.730Z,77.55
2022-09-27T19:19:17.576Z,77.88
2022-09-27T19:21:44.915Z,78.46
2022-09-27T19:24:13.886Z,79.43
2022-09-27T19:26:41.038Z,80.05
2022-09-27T19:29:08.102Z,79.65
2022-09-27T19:31:35.986Z,80.04
2022-09-27T19:34:03.706Z,79.81
2022-09-27T19:36:31.184Z,79.68
2022-09-27T19:38:58.833Z,78.88
2022-09-27T19:41:26.627Z,78.97
2022-09-27T19:43:54.604Z,79.12
2022-09-27T19:46:22.362Z,78.34
2022-09-27T19:48:49.990Z,77.87
2022-09-27T19:51:21.923Z,76.72
2022-09-27T19:53:49.410Z,75.46
2022-09-27T19:56:16.852Z,74.18
2022-09-27T19:58:44.090Z,74.00
2022-09-27T20:01:12.670Z,72.29
2022-09-27T20:03:41.578Z,72.15
2022-09-27T20:06:10.063Z,71.04
2022-09-27T20:08:37.271Z,70.67
2022-09-27T20:11:06.826Z,70.88
2022-09-27T20:13:34.580Z,71.13
2022-09-27T20:16:03.587Z,70.61
2022-09-27T20:18:31.191Z,70.87
2022-09-27T20:21:02.279Z,70.67
2022-09-27T20:23:30.454Z,70.60
2022-09-27T20:26:05.353Z,70.88
2022-09-27T20:28:32.680Z,71.64
2022-09-27T20:31:01.024Z,71.71
2022-09-27T20:33:46.931Z,71.92
2022-09-27T20:36:15.635Z,71.98
2022-09-27T20:38:44.254Z,72.55
2022-09-27T20:41:12.369Z,73.02
2022-09-27T20:43:39.457Z,73.34
2022-09-27T20:46:08.247Z,74.32
2022-09-27T20:48:35.566Z,75.64
2022-09-27T20:51:04.916Z,76.57
2022-09-27T20:53:32.857Z,76.53
2022-09-27T20:56:02.702Z,77.44
2022-09-27T20:58:30.787Z,77.22
2022-09-27T21:01:03.783Z,78.41
2022-09-27T21:03:30.982Z,78.86
2022-09-27T21:05:58.720Z,78.75
2022-09-27T21:08:28.517Z,78.74
2022-09-27T21:10:55.676Z,78.37
2022-09-27T21:13:22.749Z,78.48
2022-09-27T21:15:49.891Z,78.60
2022-09-27T21:18:19.551Z,78.18
2022-09-27T21:20:46.662Z,78.62
2022-09-27T21:23:14.653Z,79.11
2022-09-27T21:25:41.782Z,79.95
2022-09-27T21:28:09.168Z,79.79
2022-09-27T21:30:36.321Z,79.32
2022-09-27T21:33:03.828Z,79.21
2022-09-27T21:35:30.904Z,78.73
2022-09-27T21:37:58.096Z,78.75
2022-09-27T21:40:25.289Z,78.91
2022-09-27T21:42:56.923Z,79.44
2022-09-27T21:45:24.766Z,79.19
2022-09-27T21:47:51.816Z,79.10
2022-09-27T21:50:18.904Z,79.38
2022-09-27T21:52:46.039Z,80.64
2022-09-27T21:55:13.155Z,81.93
2022-09-27T21:57:40.387Z,81.13
2022-09-27T22:00:08.721Z,80.19
2022-09-27T22:02:35.914Z,80.74
2022-09-27T22:05:03.015Z,81.21
2022-09-27T22:07:30.278Z,80.94
2022-09-27T22:09:57.481Z,80.53
2022-09-27T22:12:24.542Z,81.27
2022-09-27T22:14:51.588Z,82.77
2022-09-27T22:17:18.667Z,83.36
2022-09-27T22:19:45.797Z,83.32
2022-09-27T22:22:12.971Z,83.74
2022-09-27T22:24:40.067Z,83.63
2022-09-27T22:27:07.136Z,84.78
2022-09-27T22:29:34.334Z,85.07
2022-09-27T22:32:02.292Z,84.68
2022-09-27T22:34:29.468Z,85.65
2022-09-27T22:36:57.088Z,85.65
2022-09-27T22:39:24.390Z,85.84
2022-09-27T22:41:51.470Z,85.31
2022-09-27T22:44:18.738Z,84.22
2022-09-27T22:46:46.323Z,84.00
2022-09-27T22:49:13.851Z,83.79
2022-09-27T22:51:41.067Z,83.51
2022-09-27T22:54:08.214Z,83.17
2022-09-27T22:56:35.252Z,82.87
2022-09-27T22:59:02.368Z,83.07
2022-09-27T23:01:29.490Z,82.78
2022-09-27T23:03:57.220Z,82.28
2022-09-27T23:06:24.453Z,82.33
2022-09-27T23:08:51.670Z,82.73
2022-09-27T23:11:20.005Z,82.52
2022-09-27T23:13:48.261Z,82.98
2022-09-27T23:16:20.275Z,84.85
2022-09-27T23:18:50.183Z,85.88
2022-09-27T23:21:17.368Z,86.52
2022-09-27T23:23:45.740Z,87.94
2022-09-27T23:26:13.953Z,89.08
2022-09-27T23:28:41.111Z,89.71
2022-09-27T23:31:09.516Z,89.54
2022-09-27T23:33:37.714Z,89.20
2022-09-27T23:36:05.818Z,86.92
2022-09-27T23:38:33.256Z,86.27
2022-09-27T23:41:00.543Z,85.95
2022-09-27T23:43:27.753Z,86.41
2022-09-27T23:45:57.186Z,86.47
2022-09-27T23:48:24.739Z,86.48
2022-09-27T23:50:52.240Z,86.58
2022-09-27T23:53:20.205Z,86.79
2022-09-27T23:55:48.554Z,87.03
2022-09-27T23:58:15.864Z,87.24
